Time;durP1;ratioP1;P1;durP2;ratioP2;P2;SDS_P1;SDS_P2;PMS_P1;PMS_P2;Temp;Humidity;BMP_temperature;BMP_pressure;BME280_temperature;BME280_humidity;BME280_pressure;Samples;Min_cycle;Max_cycle;Signal;HPM_P1;HPM_P2
2022/06/23 00:00:31;;;;;;;6.42;2.67;;;;;;;15.60;92.90;98673.27;1623125;88;21073;-81
2022/06/23 00:02:58;;;;;;;2.92;2.58;;;;;;;15.61;92.93;98672.16;1627211;88;21068;-79
2022/06/23 00:05:27;;;;;;;2.83;2.62;;;;;;;15.64;92.57;98676.95;1627962;88;21125;-76
2022/06/23 00:07:57;;;;;;;6.58;2.83;;;;;;;15.66;92.48;98688.30;1627641;88;21233;-76
2022/06/23 00:10:34;;;;;;;3.62;3.33;;;;;;;15.63;92.60;98692.97;1620749;87;21044;-79
2022/06/23 00:13:03;;;;;;;3.17;2.98;;;;;;;15.57;92.71;98685.28;1608972;88;20989;-76
2022/06/23 00:15:33;;;;;;;5.87;2.47;;;;;;;15.57;92.77;98671.73;1627833;88;21690;-75
2022/06/23 00:18:04;;;;;;;2.45;2.25;;;;;;;15.57;92.83;98678.50;1624585;87;21072;-77
2022/06/23 00:20:45;;;;;;;5.55;2.40;;;;;;;15.58;92.96;98680.92;1627921;88;21152;-77
2022/06/23 00:23:28;;;;;;;2.30;1.98;;;;;;;15.61;92.76;98678.13;1626642;88;21119;-79
2022/06/23 00:26:07;;;;;;;2.52;2.33;;;;;;;15.61;92.41;98676.78;1607582;88;21102;-74
2022/06/23 00:28:42;;;;;;;6.47;2.65;;;;;;;15.61;92.35;98678.13;1620945;87;21012;-77
2022/06/23 00:31:23;;;;;;;2.62;2.42;;;;;;;15.63;92.31;98676.70;1625074;88;22191;-74
2022/06/23 00:33:50;;;;;;;4.95;2.58;;;;;;;15.64;92.15;98684.28;1627892;88;21242;-74
2022/06/23 00:36:36;;;;;;;3.42;2.60;;;;;;;15.63;92.08;98678.64;1627968;88;21043;-71
2022/06/23 00:39:26;;;;;;;3.02;2.72;;;;;;;15.62;92.19;98674.32;1626890;86;20969;-85
2022/06/23 00:41:53;;;;;;;3.65;2.92;;;;;;;15.62;92.26;98672.97;1622153;87;21051;-83
2022/06/23 00:44:55;;;;;;;3.55;2.52;;;;;;;15.59;92.41;98681.69;1616433;86;21075;-79
2022/06/23 00:47:38;;;;;;;5.17;2.60;;;;;;;15.60;92.49;98681.39;1625576;88;21926;-80
2022/06/23 00:50:33;;;;;;;5.85;4.45;;;;;;;15.62;92.61;98694.65;1626904;88;21540;-79
2022/06/23 00:53:13;;;;;;;5.90;2.75;;;;;;;15.54;93.70;98688.03;1601766;89;21076;-78
2022/06/23 00:56:10;;;;;;;4.28;2.95;;;;;;;15.50;94.10;98673.47;1623385;86;21426;-77
2022/06/23 00:58:51;;;;;;;3.50;2.80;;;;;;;15.51;94.43;98674.30;1612405;89;21108;-77
2022/06/23 01:01:39;;;;;;;3.50;2.45;;;;;;;15.49;94.94;98675.92;1609785;87;21052;-78
2022/06/23 01:04:23;;;;;;;6.03;3.45;;;;;;;15.48;95.16;98668.92;1613629;87;21076;-79
2022/06/23 01:07:04;;;;;;;3.55;2.67;;;;;;;15.48;95.56;98648.60;1611069;89;21120;-78
2022/06/23 01:09:42;;;;;;;5.28;2.77;;;;;;;15.49;96.14;98655.60;1614360;87;21052;-78
2022/06/23 01:12:25;;;;;;;3.20;2.65;;;;;;;15.50;96.35;98660.47;1612779;88;21026;-79
2022/06/23 01:15:20;;;;;;;3.62;3.12;;;;;;;15.52;96.33;98650.16;1611531;88;22184;-77
2022/06/23 01:18:15;;;;;;;4.97;3.80;;;;;;;15.50;96.72;98654.50;1620846;87;21044;-78
2022/06/23 01:21:02;;;;;;;3.85;3.25;;;;;;;15.47;97.26;98658.38;1592563;89;21046;-80
2022/06/23 01:24:08;;;;;;;6.47;3.20;;;;;;;15.41;97.92;98667.73;1624758;87;20984;-79
2022/06/23 01:27:11;;;;;;;4.47;3.47;;;;;;;15.29;99.50;98656.09;1603746;89;21113;-77
2022/06/23 01:29:43;;;;;;;4.78;3.22;;;;;;;15.26;100.00;98670.23;1591001;88;21282;-80
2022/06/23 01:32:27;;;;;;;3.87;3.00;;;;;;;15.22;100.00;98661.12;1612199;87;21012;-77
2022/06/23 01:35:18;;;;;;;3.80;3.22;;;;;;;15.15;100.00;98668.88;1614816;88;21006;-77
2022/06/23 01:38:02;;;;;;;4.45;3.47;;;;;;;15.09;100.00;98670.08;1612561;88;21030;-78
2022/06/23 01:40:46;;;;;;;3.62;3.33;;;;;;;15.08;100.00;98655.73;1602289;89;21094;-76
2022/06/23 01:43:18;;;;;;;4.83;3.17;;;;;;;15.08;100.00;98663.86;1539121;90;21287;-76
2022/06/23 01:45:56;;;;;;;4.25;3.85;;;;;;;15.02;100.00;98655.59;1577871;89;21565;-76
2022/06/23 01:48:54;;;;;;;4.42;4.03;;;;;;;15.03;100.00;98657.20;1610867;88;21100;-78
2022/06/23 01:51:26;;;;;;;4.87;4.15;;;;;;;15.03;100.00;98665.88;1612479;89;21085;-83
2022/06/23 01:53:55;;;;;;;5.72;3.40;;;;;;;15.02;100.00;98656.14;1611040;88;21144;-83
2022/06/23 01:56:36;;;;;;;4.83;4.20;;;;;;;15.02;100.00;98658.30;1612762;88;21297;-80
2022/06/23 01:59:39;;;;;;;4.28;3.37;;;;;;;15.03;100.00;98667.23;1612339;89;21010;-80
2022/06/23 02:02:31;;;;;;;6.07;4.97;;;;;;;15.05;100.00;98669.89;1611752;89;21002;-77
2022/06/23 02:05:23;;;;;;;6.62;3.40;;;;;;;15.05;100.00;98668.55;1617912;87;21081;-78
2022/06/23 02:08:10;;;;;;;5.47;4.17;;;;;;;15.05;100.00;98675.31;1631718;87;21080;-76
2022/06/23 02:10:46;;;;;;;5.47;3.70;;;;;;;15.06;100.00;98664.70;1618119;87;21188;-75
2022/06/23 02:13:24;;;;;;;7.58;3.92;;;;;;;15.08;100.00;98669.83;1611956;88;21121;-77
2022/06/23 02:16:29;;;;;;;4.65;3.77;;;;;;;15.11;100.00;98666.50;1612362;89;20985;-73
2022/06/23 02:19:18;;;;;;;8.40;4.42;;;;;;;15.14;100.00;98668.07;1612668;89;21526;-76
2022/06/23 02:21:52;;;;;;;5.22;3.75;;;;;;;15.16;100.00;98683.45;1612309;89;21081;-75
2022/06/23 02:24:33;;;;;;;8.95;3.90;;;;;;;15.21;100.00;98679.82;1612663;89;21836;-76
2022/06/23 02:27:20;;;;;;;4.70;4.20;;;;;;;15.26;100.00;98684.58;1612560;89;21001;-76
2022/06/23 02:30:08;;;;;;;5.67;4.25;;;;;;;15.30;100.00;98686.70;1606636;89;21507;-75
2022/06/23 02:33:12;;;;;;;4.72;3.95;;;;;;;15.32;100.00;98685.27;1610356;87;21077;-75
2022/06/23 02:36:22;;;;;;;6.83;4.22;;;;;;;15.33;100.00;98682.81;1612502;88;21117;-76
2022/06/23 02:39:02;;;;;;;6.50;3.80;;;;;;;15.37;99.24;98693.84;1612549;89;21128;-75
2022/06/23 02:41:39;;;;;;;6.37;4.22;;;;;;;15.41;98.63;98683.98;1612164;89;21056;-77
2022/06/23 02:44:23;;;;;;;3.95;3.65;;;;;;;15.44;98.06;98692.88;1611271;89;21078;-76
2022/06/23 02:47:18;;;;;;;3.60;3.25;;;;;;;15.46;97.27;98688.74;1612762;89;21128;-75
2022/06/23 02:49:59;;;;;;;6.35;4.10;;;;;;;15.51;96.92;98683.79;1611545;89;21542;-77
2022/06/23 02:52:51;;;;;;;4.33;3.92;;;;;;;15.52;96.15;98681.33;1612045;87;21488;-77
2022/06/23 02:55:54;;;;;;;4.53;4.05;;;;;;;15.56;96.05;98691.25;1611592;89;20977;-76
2022/06/23 02:58:28;;;;;;;4.85;4.45;;;;;;;15.59;95.38;98702.82;1566490;91;21075;-79
2022/06/23 03:01:18;;;;;;;8.80;4.28;;;;;;;15.61;94.98;98705.23;1566512;90;21087;-80
2022/06/23 03:03:58;;;;;;;4.97;3.10;;;;;;;15.62;94.73;98701.42;1639319;87;21094;-77
2022/06/23 03:06:49;;;;;;;3.67;3.37;;;;;;;15.63;94.55;98705.16;1616584;87;21415;-76
2022/06/23 03:09:33;;;;;;;4.83;3.60;;;;;;;15.64;94.18;98704.61;1630852;87;21083;-76
2022/06/23 03:12:27;;;;;;;6.50;3.83;;;;;;;15.61;94.09;98706.05;1668817;86;21578;-76
2022/06/23 03:15:03;;;;;;;;;;;;;;;15.60;94.18;98707.14;1674109;85;21022;-77
2022/06/23 03:17:55;;;;;;;6.45;3.75;;;;;;;15.64;94.14;98708.68;1668716;84;20217;-77
2022/06/23 03:20:39;;;;;;;4.17;3.80;;;;;;;15.63;94.05;98718.72;1677265;84;21015;-76
2022/06/23 03:23:29;;;;;;;4.37;3.98;;;;;;;15.66;94.30;98701.86;1669774;84;20975;-78
2022/06/23 03:26:19;;;;;;;7.90;3.70;;;;;;;15.68;94.38;98701.56;1639005;87;21046;-76
2022/06/23 03:29:06;;;;;;;5.67;3.55;;;;;;;15.68;94.57;98702.92;1638534;87;21067;-78
2022/06/23 03:32:07;;;;;;;3.85;3.55;;;;;;;15.70;94.67;98707.45;1636404;86;21683;-77
2022/06/23 03:34:59;;;;;;;5.17;3.95;;;;;;;15.73;94.43;98706.83;1638289;86;22153;-77
2022/06/23 03:38:05;;;;;;;5.33;4.08;;;;;;;15.76;94.30;98706.23;1638744;86;20916;-78
2022/06/23 03:43:45;;;;;;;5.90;4.13;;;;;;;15.84;93.75;98708.75;1637447;86;21102;-77
2022/06/23 03:46:32;;;;;;;5.03;3.87;;;;;;;15.87;93.42;98717.09;1638855;87;21503;-81
2022/06/23 03:49:20;;;;;;;3.60;3.27;;;;;;;15.88;93.10;98714.61;1641262;87;21191;-83
2022/06/23 03:51:58;;;;;;;5.90;4.15;;;;;;;15.91;93.00;98726.77;1616409;86;21117;-81
2022/06/23 03:54:28;;;;;;;5.05;3.85;;;;;;;15.93;92.79;98730.75;1617462;87;21085;-78
2022/06/23 03:56:59;;;;;;;4.62;4.15;;;;;;;15.93;92.67;98734.02;1614038;88;21017;-80
2022/06/23 03:59:43;;;;;;;5.47;4.17;;;;;;;15.92;92.54;98723.73;1631341;86;21135;-80
2022/06/23 04:02:19;;;;;;;6.15;4.40;;;;;;;15.90;92.61;98734.09;1654743;85;21345;-79
2022/06/23 04:04:57;;;;;;;4.22;3.72;;;;;;;15.93;92.89;98729.95;1589385;90;20969;-79
2022/06/23 04:07:34;;;;;;;4.75;4.08;;;;;;;15.97;92.73;98746.66;1630367;87;20944;-81
2022/06/23 04:10:06;;;;;;;7.37;3.95;;;;;;;16.00;92.51;98754.20;1590021;89;21064;-78
2022/06/23 04:12:35;;;;;;;10.28;4.37;;;;;;;16.04;92.48;98761.95;1614916;87;21045;-79
2022/06/23 04:15:11;;;;;;;5.33;4.75;;;;;;;16.04;92.62;98760.60;1614969;88;21817;-81
2022/06/23 04:17:52;;;;;;;4.33;3.65;;;;;;;16.04;92.47;98766.03;1614814;88;21103;-80
2022/06/23 04:20:32;;;;;;;5.20;4.75;;;;;;;16.06;92.45;98763.81;1608055;87;20999;-77
2022/06/23 04:23:23;;;;;;;11.43;4.08;;;;;;;16.02;92.82;98753.86;1630969;87;21340;-77
2022/06/23 04:26:08;;;;;;;4.28;3.87;;;;;;;16.05;92.72;98747.84;1537060;91;21614;-79
2022/06/23 04:28:47;;;;;;;6.10;4.10;;;;;;;16.11;92.39;98752.81;1556810;91;21719;-79
2022/06/23 04:31:29;;;;;;;5.05;3.35;;;;;;;16.19;92.14;98760.78;1622103;87;21076;-78
2022/06/23 04:33:55;;;;;;;3.90;3.50;;;;;;;16.25;91.93;98760.91;1603119;88;20983;-79
2022/06/23 04:36:25;;;;;;;6.30;4.53;;;;;;;16.30;91.37;98755.91;1631960;88;21099;-79
2022/06/23 04:39:17;;;;;;;7.65;4.10;;;;;;;16.34;90.96;98755.53;1643325;87;21652;-80
2022/06/23 04:41:48;;;;;;;7.22;4.67;;;;;;;16.40;90.77;98763.80;1613481;87;21299;-78
2022/06/23 04:44:31;;;;;;;5.72;4.45;;;;;;;16.46;90.17;98755.20;1589324;89;21557;-79
2022/06/23 04:47:02;;;;;;;9.07;6.33;;;;;;;16.52;89.87;98763.46;1630804;87;21200;-86
2022/06/23 04:49:34;;;;;;;7.42;4.83;;;;;;;16.61;89.37;98768.16;1589538;90;21087;-76
2022/06/23 04:52:26;;;;;;;11.15;5.58;;;;;;;16.64;89.18;98768.36;1616143;87;21069;-80
2022/06/23 04:55:20;;;;;;;9.60;6.85;;;;;;;16.69;88.68;98774.98;1614431;88;21848;-80
2022/06/23 04:58:06;;;;;;;10.88;5.42;;;;;;;16.72;88.26;98766.78;1627851;87;21032;-82
2022/06/23 05:00:43;;;;;;;11.22;5.35;;;;;;;16.76;88.13;98760.41;1645393;87;22308;-82
2022/06/23 05:03:18;;;;;;;4.42;3.27;;;;;;;16.80;87.78;98772.25;1647166;86;21725;-82
2022/06/23 05:05:45;;;;;;;5.05;4.00;;;;;;;16.87;87.24;98765.02;1635466;87;21065;-80
2022/06/23 05:08:26;;;;;;;7.37;4.62;;;;;;;16.89;87.00;98770.36;1635168;87;21162;-81
2022/06/23 05:11:16;;;;;;;4.22;3.92;;;;;;;16.94;86.94;98787.88;1645485;86;21157;-77
2022/06/23 05:13:51;;;;;;;6.78;4.42;;;;;;;16.98;86.03;98781.26;1637372;86;21029;-78
2022/06/23 05:16:29;;;;;;;3.77;3.47;;;;;;;17.06;85.96;98798.17;1635501;87;20962;-78
2022/06/23 05:19:00;;;;;;;6.45;3.80;;;;;;;17.17;85.86;98778.31;1648755;86;20965;-77
2022/06/23 05:21:29;;;;;;;6.08;3.77;;;;;;;17.30;85.43;98782.83;1661004;86;21532;-79
2022/06/23 05:24:19;;;;;;;6.37;3.95;;;;;;;17.39;84.58;98782.28;1647365;86;21015;-79
2022/06/23 05:27:02;;;;;;;8.38;3.67;;;;;;;17.46;83.90;98776.39;1639142;87;21062;-76
2022/06/23 05:29:54;;;;;;;5.10;4.53;;;;;;;17.48;83.40;98777.66;1636938;86;20996;-79
2022/06/23 05:32:26;;;;;;;5.10;3.95;;;;;;;17.50;82.97;98759.13;1653032;86;21125;-79
2022/06/23 05:35:27;;;;;;;6.08;3.77;;;;;;;17.51;82.93;98787.08;1650653;86;20934;-75
2022/06/23 05:38:08;;;;;;;4.78;3.90;;;;;;;17.54;82.89;98798.70;1660396;86;21013;-80
2022/06/23 05:40:57;;;;;;;8.00;3.70;;;;;;;17.57;82.81;98800.78;1658419;86;20958;-79
2022/06/23 05:43:24;;;;;;;5.12;3.65;;;;;;;17.58;82.91;98790.95;1629270;86;21035;-77
2022/06/23 05:45:56;;;;;;;7.42;4.22;;;;;;;17.63;82.98;98804.98;1636455;86;21331;-78
2022/06/23 05:48:37;;;;;;;4.80;3.98;;;;;;;17.61;82.56;98808.56;1635802;87;21280;-77
2022/06/23 05:51:17;;;;;;;5.03;3.87;;;;;;;17.60;82.44;98805.63;1635348;87;21028;-79
2022/06/23 05:54:07;;;;;;;7.97;4.20;;;;;;;17.55;82.79;98811.99;1628811;86;21145;-79
2022/06/23 05:56:46;;;;;;;7.35;4.47;;;;;;;17.56;83.08;98827.16;1635496;87;21072;-82
2022/06/23 05:59:18;;;;;;;6.28;4.55;;;;;;;17.58;82.88;98803.19;1636902;86;21521;-78
2022/06/23 06:02:20;;;;;;;5.20;4.07;;;;;;;17.61;83.05;98809.38;1636539;86;21329;-78
2022/06/23 06:04:54;;;;;;;4.72;3.77;;;;;;;17.68;82.81;98798.04;1646406;86;20918;-77
2022/06/23 06:07:24;;;;;;;4.00;3.40;;;;;;;17.78;82.53;98816.22;1661010;86;21593;-77
2022/06/23 06:09:51;;;;;;;6.12;4.20;;;;;;;17.88;82.32;98818.38;1659847;86;20950;-81
2022/06/23 06:12:22;;;;;;;4.20;3.67;;;;;;;17.91;82.12;98809.02;1649171;86;21571;-79
2022/06/23 06:15:01;;;;;;;3.25;3.05;;;;;;;17.98;81.97;98814.80;1638225;86;21930;-79
2022/06/23 06:17:31;;;;;;;5.45;4.08;;;;;;;18.08;81.74;98810.37;1635735;86;21566;-80
2022/06/23 06:20:02;;;;;;;7.87;3.52;;;;;;;18.15;80.74;98813.98;1636143;87;21071;-77
2022/06/23 06:22:43;;;;;;;6.78;6.03;;;;;;;18.21;80.20;98823.03;1635798;87;21108;-83
2022/06/23 06:25:30;;;;;;;6.42;4.47;;;;;;;18.25;80.24;98825.34;1631848;86;21058;-83
2022/06/23 06:28:01;;;;;;;4.03;3.65;;;;;;;18.26;80.31;98834.31;1649261;86;21125;-86
2022/06/23 06:30:31;;;;;;;8.58;4.35;;;;;;;18.27;80.25;98832.62;1643022;86;21011;-82
2022/06/23 06:32:57;;;;;;;4.60;3.80;;;;;;;18.26;79.82;98841.93;1638699;86;21031;-78
2022/06/23 06:35:36;;;;;;;7.22;3.83;;;;;;;18.27;79.87;98827.76;1638407;86;21595;-78
2022/06/23 06:38:07;;;;;;;4.55;4.05;;;;;;;18.35;79.48;98827.50;1637126;86;21016;-80
2022/06/23 06:40:34;;;;;;;8.15;4.00;;;;;;;18.41;79.25;98829.75;1635614;87;21159;-79
2022/06/23 06:43:06;;;;;;;10.58;3.80;;;;;;;18.47;79.04;98837.97;1635589;86;21547;-80
2022/06/23 06:45:36;;;;;;;3.70;3.40;;;;;;;18.56;79.19;98832.56;1641998;86;25020;-77
2022/06/23 06:48:03;;;;;;;4.62;3.67;;;;;;;18.65;78.96;98849.13;1638692;87;21043;-76
2022/06/23 06:50:46;;;;;;;4.12;3.72;;;;;;;18.70;78.23;98841.34;1638692;87;21106;-78
2022/06/23 06:53:30;;;;;;;3.83;3.30;;;;;;;18.72;77.76;98858.16;1635181;86;21377;-79
2022/06/23 06:56:04;;;;;;;8.20;5.87;;;;;;;18.65;77.93;98850.49;1650124;86;20966;-80
2022/06/23 06:58:57;;;;;;;7.45;4.47;;;;;;;18.59;77.45;98851.77;1659114;86;21055;-77
2022/06/23 07:01:25;;;;;;;7.58;3.50;;;;;;;18.56;77.75;98853.77;1660975;86;21503;-76
2022/06/23 07:03:53;;;;;;;4.78;4.37;;;;;;;18.60;77.94;98856.10;1652821;86;21067;-78
2022/06/23 07:06:29;;;;;;;5.55;3.40;;;;;;;18.65;78.04;98866.83;1644451;86;21200;-77
2022/06/23 07:09:07;;;;;;;3.92;3.60;;;;;;;18.65;77.84;98864.66;1660767;86;21581;-79
2022/06/23 07:11:59;;;;;;;4.55;4.15;;;;;;;18.68;77.82;98850.39;1660914;86;20975;-77
2022/06/23 07:14:39;;;;;;;4.33;3.87;;;;;;;18.73;77.68;98863.84;1652963;86;21018;-79
2022/06/23 07:17:34;;;;;;;5.37;3.40;;;;;;;18.77;77.13;98869.44;1661184;86;21121;-76
2022/06/23 07:20:06;;;;;;;4.92;3.67;;;;;;;18.77;76.91;98870.24;1641976;86;21220;-78
2022/06/23 07:22:41;;;;;;;3.98;3.65;;;;;;;18.83;76.90;98864.87;1649001;86;21018;-77
2022/06/23 07:25:26;;;;;;;7.30;3.95;;;;;;;18.84;76.47;98871.92;1619262;87;21050;-79
2022/06/23 07:27:59;;;;;;;9.25;4.08;;;;;;;18.87;76.00;98873.98;1655481;86;21204;-79
2022/06/23 07:30:53;;;;;;;4.60;4.20;;;;;;;18.94;75.37;98879.75;1651233;86;21057;-80
2022/06/23 07:33:24;;;;;;;7.15;5.42;;;;;;;19.03;75.00;98903.70;1652468;86;21095;-77
2022/06/23 07:36:26;;;;;;;3.98;3.47;;;;;;;19.13;74.72;98893.02;1640262;87;21068;-78
2022/06/23 07:39:07;;;;;;;4.40;4.00;;;;;;;19.24;74.32;98890.70;1640272;87;21015;-83
2022/06/23 07:41:39;;;;;;;4.83;3.60;;;;;;;19.35;74.29;98902.86;1640339;87;21534;-80
2022/06/23 07:44:20;;;;;;;4.30;3.45;;;;;;;19.47;74.17;98901.66;1637830;86;21002;-79
2022/06/23 07:46:47;;;;;;;6.55;3.37;;;;;;;19.56;73.49;98909.23;1645892;86;21744;-79
2022/06/23 07:49:14;;;;;;;4.42;3.50;;;;;;;19.68;72.98;98900.34;1637705;86;21183;-81
2022/06/23 07:51:41;;;;;;;4.45;3.85;;;;;;;19.76;71.54;98907.70;1635696;87;21049;-78
2022/06/23 07:54:11;;;;;;;11.38;4.20;;;;;;;19.83;71.49;98903.31;1636962;86;21136;-80
2022/06/23 07:56:39;;;;;;;6.03;4.85;;;;;;;19.92;71.35;98912.25;1641665;87;21065;-79
2022/06/23 07:59:10;;;;;;;3.77;3.47;;;;;;;19.99;70.13;98915.27;1638693;87;21214;-77
2022/06/23 08:02:17;;;;;;;3.85;3.55;;;;;;;20.04;70.38;98915.64;1648075;86;21541;-77
2022/06/23 08:05:15;;;;;;;4.25;3.75;;;;;;;20.07;69.67;98917.70;1636547;86;21533;-76
2022/06/23 08:07:42;;;;;;;7.00;5.25;;;;;;;20.09;69.72;98924.20;1590288;88;21141;-77
2022/06/23 08:10:26;;;;;;;5.15;3.27;;;;;;;20.15;70.00;98918.77;1614919;88;21057;-79
2022/06/23 08:13:19;;;;;;;5.37;3.60;;;;;;;20.20;69.48;98927.56;1615117;88;21221;-78
2022/06/23 08:19:10;;;;;;;3.80;3.42;;;;;;;20.24;69.11;98928.49;1605675;88;21088;-79
2022/06/23 08:21:42;;;;;;;4.12;2.37;;;;;;;20.31;68.47;98939.73;1614926;88;21366;-79
2022/06/23 08:24:14;;;;;;;3.08;2.77;;;;;;;20.40;67.23;98939.66;1614851;87;21576;-75
2022/06/23 08:26:49;;;;;;;4.35;3.95;;;;;;;20.50;67.33;98942.56;1623696;87;21297;-81
2022/06/23 08:29:17;;;;;;;5.37;2.87;;;;;;;20.57;66.79;98945.02;1614409;88;21043;-80
2022/06/23 08:31:45;;;;;;;5.30;3.22;;;;;;;20.64;65.41;98954.82;1647399;87;21086;-79
2022/06/23 08:34:11;;;;;;;4.72;3.33;;;;;;;20.64;65.07;98955.39;1637652;86;20967;-81
2022/06/23 08:36:47;;;;;;;5.42;3.17;;;;;;;20.66;64.58;98957.23;1589419;90;21060;-79
2022/06/23 08:39:38;;;;;;;5.35;2.80;;;;;;;20.69;64.47;98954.63;1614839;88;21604;-80
2022/06/23 08:42:25;;;;;;;3.92;3.05;;;;;;;20.75;64.60;98951.92;1615733;87;21142;-79
2022/06/23 08:45:16;;;;;;;4.28;3.05;;;;;;;20.81;63.95;98957.40;1615715;87;20980;-79
2022/06/23 08:48:11;;;;;;;10.60;3.67;;;;;;;20.93;64.17;98951.76;1631566;87;20929;-75
2022/06/23 08:51:03;;;;;;;3.72;3.25;;;;;;;21.04;63.70;98947.48;1589993;88;21098;-80
2022/06/23 08:53:52;;;;;;;4.60;4.25;;;;;;;21.10;62.14;98964.69;1620794;87;21261;-80
2022/06/23 08:56:41;;;;;;;3.42;3.12;;;;;;;21.11;61.04;98955.36;1589565;88;21008;-80
2022/06/23 08:59:56;;;;;;;3.33;3.02;;;;;;;21.07;60.96;98962.64;1596646;89;21061;-77
2022/06/23 09:02:52;;;;;;;3.98;2.95;;;;;;;21.02;61.49;98974.34;1606071;89;21082;-80
2022/06/23 09:05:39;;;;;;;9.30;3.52;;;;;;;20.97;61.84;98976.72;1596848;88;20971;-82
2022/06/23 09:08:24;;;;;;;4.35;2.67;;;;;;;20.92;62.21;98983.77;1594935;89;21277;-84
2022/06/23 09:11:09;;;;;;;4.58;3.35;;;;;;;20.87;62.82;98984.77;1606594;89;21543;-83
2022/06/23 09:14:10;;;;;;;3.52;3.22;;;;;;;20.84;62.88;99001.05;1600020;89;20947;-82
2022/06/23 09:17:00;;;;;;;6.35;3.80;;;;;;;20.77;63.23;99011.70;1603842;88;21140;-81
2022/06/23 09:20:12;;;;;;;6.87;3.22;;;;;;;20.69;63.25;99003.01;1602379;88;21554;-78
2022/06/23 09:23:19;;;;;;;11.53;3.80;;;;;;;20.66;62.98;99007.22;1602498;88;21111;-85
2022/06/23 09:26:02;;;;;;;3.33;3.10;;;;;;;20.63;62.78;99009.80;1598521;88;21053;-80
2022/06/23 09:28:54;;;;;;;3.02;2.83;;;;;;;20.56;62.91;99015.00;1601437;88;21077;-80
2022/06/23 09:31:52;;;;;;;5.78;2.80;;;;;;;20.48;63.18;99020.75;1598539;89;21078;-82
2022/06/23 09:34:30;;;;;;;2.80;2.60;;;;;;;20.41;63.67;99030.05;1598862;88;21129;-85
2022/06/23 09:37:34;;;;;;;8.60;2.70;;;;;;;20.38;64.46;99034.22;1599127;88;21318;-82
2022/06/23 09:40:33;;;;;;;3.33;2.95;;;;;;;20.24;66.74;99043.19;1608077;88;21061;-87
2022/06/23 09:43:39;;;;;;;3.77;3.47;;;;;;;20.24;66.74;99043.19;1615002;88;21103;-91
2022/06/23 09:46:39;;;;;;;6.00;3.42;;;;;;;20.16;68.36;99057.69;1606458;88;21074;-87
2022/06/23 09:49:37;;;;;;;4.33;3.35;;;;;;;20.07;70.17;99058.86;1609367;88;21098;-86
2022/06/23 09:52:33;;;;;;;6.97;4.65;;;;;;;19.88;72.83;99061.42;1597099;88;21128;-82
2022/06/23 09:55:26;;;;;;;7.53;6.58;;;;;;;19.76;74.44;99056.41;1600235;88;21123;-80
2022/06/23 09:58:43;;;;;;;6.15;4.85;;;;;;;19.71;75.17;99065.55;1599111;89;21035;-81
2022/06/23 10:01:27;;;;;;;4.87;3.40;;;;;;;19.69;75.90;99069.73;1599287;89;21070;-85
2022/06/23 10:03:59;;;;;;;4.50;3.25;;;;;;;19.66;75.63;99068.48;1608350;87;21626;-83
2022/06/23 10:06:40;;;;;;;6.47;3.25;;;;;;;19.59;75.68;99069.52;1603890;88;21516;-78
2022/06/23 10:09:24;;;;;;;3.42;3.12;;;;;;;19.59;75.68;99069.52;1598394;88;21035;-92
2022/06/23 10:12:12;;;;;;;6.78;3.12;;;;;;;19.55;77.48;99072.66;1600433;89;21035;-91
2022/06/23 10:15:07;;;;;;;3.77;3.45;;;;;;;19.54;76.66;99074.59;1571671;88;38976;-82
2022/06/23 10:17:38;;;;;;;;;;;;;;;19.58;76.57;99077.46;1593389;88;21150;-73
2022/06/23 10:20:49;;;;;;;3.47;3.12;;;;;;;19.60;76.04;99087.50;1593489;88;21258;-81
2022/06/23 10:23:45;;;;;;;5.42;3.47;;;;;;;19.58;76.24;99089.17;1544282;89;21600;-77
2022/06/23 10:26:34;;;;;;;3.67;3.15;;;;;;;19.61;76.08;99092.40;1590896;89;21108;-78
2022/06/23 10:29:26;;;;;;;5.72;3.62;;;;;;;19.62;75.94;99087.16;1590231;88;21090;-80
2022/06/23 10:32:23;;;;;;;6.00;3.22;;;;;;;19.59;74.63;99078.52;1597432;88;21690;-78
2022/06/23 10:35:25;;;;;;;10.58;3.22;;;;;;;19.64;74.08;99088.45;1590746;90;21343;-76
2022/06/23 10:38:21;;;;;;;3.62;2.80;;;;;;;19.64;73.67;99092.55;1590518;90;21111;-75
2022/06/23 10:41:28;;;;;;;6.80;3.27;;;;;;;19.67;72.31;99091.08;1557368;90;21091;-76
2022/06/23 10:44:14;;;;;;;12.07;5.25;;;;;;;19.71;72.56;99079.78;1590312;90;21051;-77
2022/06/23 10:46:44;;;;;;;4.12;3.45;;;;;;;19.76;72.28;99091.30;1602554;88;21118;-87
2022/06/23 10:49:24;;;;;;;4.67;3.70;;;;;;;19.80;72.49;99096.93;1588816;88;21161;-78
2022/06/23 10:52:29;;;;;;;7.65;4.05;;;;;;;19.78;72.90;99096.44;1597169;88;21115;-82
2022/06/23 10:55:13;;;;;;;6.65;2.72;;;;;;;19.78;72.81;99096.44;1590696;90;21042;-88
2022/06/23 10:57:54;;;;;;;3.22;2.92;;;;;;;19.85;71.74;99100.85;1585430;88;21150;-82
2022/06/23 11:00:26;;;;;;;3.40;3.10;;;;;;;19.92;70.22;99106.59;1586459;89;21533;-85
2022/06/23 11:03:37;;;;;;;14.87;3.40;;;;;;;19.94;69.08;99103.80;1601014;88;21401;-82
2022/06/23 11:06:26;;;;;;;4.87;3.50;;;;;;;19.97;67.36;99097.67;1597698;89;21528;-81
2022/06/23 11:09:11;;;;;;;4.67;3.33;;;;;;;19.98;66.71;99104.74;1594275;89;21048;-77
2022/06/23 11:11:48;;;;;;;3.72;3.42;;;;;;;19.99;65.66;99116.47;1572560;89;20985;-80
2022/06/23 11:14:39;;;;;;;2.45;2.33;;;;;;;19.95;66.46;99114.93;1582564;89;21122;-85
2022/06/23 11:17:45;;;;;;;3.02;2.70;;;;;;;19.93;65.51;99121.30;1570555;89;21134;-78
2022/06/23 11:20:33;;;;;;;2.70;2.30;;;;;;;20.02;65.24;99119.90;1586586;89;21048;-86
2022/06/23 11:23:11;;;;;;;4.30;2.85;;;;;;;20.02;65.24;99119.90;1590700;89;20999;-82
2022/06/23 11:25:44;;;;;;;4.45;4.05;;;;;;;20.05;65.19;99130.16;1581263;89;21050;-80
2022/06/23 11:28:30;;;;;;;11.47;2.87;;;;;;;20.03;64.88;99130.50;1581564;90;21152;-81
2022/06/23 11:31:38;;;;;;;6.50;3.40;;;;;;;20.08;64.73;99130.89;1589283;89;21160;-86
2022/06/23 11:34:34;;;;;;;6.05;2.95;;;;;;;20.13;64.58;99122.52;1588055;89;21010;-80
2022/06/23 11:37:15;;;;;;;6.58;2.90;;;;;;;20.21;64.10;99133.97;1581549;89;21019;-77
2022/06/23 11:40:09;;;;;;;5.42;2.65;;;;;;;20.21;64.10;99133.97;1558590;92;21114;-78
2022/06/23 11:42:41;;;;;;;3.00;2.65;;;;;;;20.30;63.86;99135.30;1559652;89;21042;-81
2022/06/23 11:45:34;;;;;;;2.77;2.58;;;;;;;20.40;63.02;99141.23;1560900;89;21813;-87
2022/06/23 11:48:38;;;;;;;;;;;;;;;20.48;62.35;99134.71;1575891;89;21219;-87
2022/06/23 11:51:25;;;;;;;3.87;3.58;;;;;;;20.57;62.67;99146.39;1549338;92;20232;-81
2022/06/23 11:54:10;;;;;;;6.20;3.27;;;;;;;20.70;62.08;99151.62;1559667;92;22243;-79
2022/06/23 11:57:10;;;;;;;3.37;2.80;;;;;;;20.70;62.08;99151.62;1564641;91;21067;-83
2022/06/23 12:00:03;;;;;;;2.75;2.55;;;;;;;20.77;61.17;99153.83;1560353;91;21285;-75
2022/06/23 12:02:37;;;;;;;2.60;2.40;;;;;;;20.82;61.00;99156.37;1592375;89;21054;-74
2022/06/23 12:05:36;;;;;;;5.65;3.50;;;;;;;20.88;60.51;99155.86;1573200;90;21076;-79
2022/06/23 12:08:14;;;;;;;5.30;3.25;;;;;;;20.96;60.86;99147.95;1573566;89;21151;-78
2022/06/23 12:10:42;;;;;;;2.90;2.58;;;;;;;21.10;60.24;99156.70;1549127;88;21022;-78
2022/06/23 12:13:08;;;;;;;4.40;3.20;;;;;;;21.25;59.52;99146.55;1586777;89;21122;-77
2022/06/23 12:15:43;;;;;;;4.22;2.50;;;;;;;21.38;59.30;99158.38;1555106;91;21115;-76
2022/06/23 12:18:18;;;;;;;2.67;2.42;;;;;;;21.53;58.97;99168.72;1572904;90;21149;-76
2022/06/23 12:21:34;;;;;;;5.17;3.45;;;;;;;21.64;57.76;99174.80;1562450;91;21152;-76
2022/06/23 12:24:40;;;;;;;3.55;3.25;;;;;;;21.69;57.58;99170.48;1568649;89;21040;-77
2022/06/23 12:27:36;;;;;;;2.83;2.62;;;;;;;21.78;57.58;99166.86;1574066;90;21864;-75
2022/06/23 12:30:15;;;;;;;3.22;2.33;;;;;;;21.87;56.83;99179.93;1587073;89;21550;-76
2022/06/23 12:33:04;;;;;;;4.33;3.47;;;;;;;21.84;56.52;99171.00;1578147;91;21058;-79
2022/06/23 12:35:39;;;;;;;4.53;2.30;;;;;;;21.77;56.52;99172.93;1581152;90;21075;-76
2022/06/23 12:38:25;;;;;;;4.10;2.90;;;;;;;21.70;56.80;99183.61;1590742;89;21032;-78
2022/06/23 12:41:10;;;;;;;7.33;2.25;;;;;;;21.63;56.74;99174.56;1590769;90;21201;-76
2022/06/23 12:44:01;;;;;;;6.58;4.50;;;;;;;21.59;57.14;99173.63;1591180;90;21094;-75
2022/06/23 12:46:51;;;;;;;4.12;3.27;;;;;;;21.54;57.05;99193.55;1560398;89;21095;-76
2022/06/23 12:49:54;;;;;;;4.05;3.47;;;;;;;21.49;57.81;99189.65;1581993;90;21044;-76
2022/06/23 12:52:42;;;;;;;4.78;2.85;;;;;;;21.41;57.90;99191.89;1535837;93;21147;-76
2022/06/23 12:55:32;;;;;;;5.72;3.83;;;;;;;21.41;58.23;99198.17;1535883;91;21360;-74
2022/06/23 12:58:09;;;;;;;4.55;3.20;;;;;;;21.40;58.46;99199.30;1551814;92;21552;-74